createdAt,value
2023-05-02T00:01:13.746Z,101229.72
2023-05-02T00:05:15.478Z,101226.41
2023-05-02T00:09:17.039Z,101230.09
2023-05-02T00:13:18.449Z,101226.75
2023-05-02T00:17:20.441Z,101224.91
2023-05-02T00:21:22.017Z,101223.66
2023-05-02T00:25:23.600Z,101225.41
2023-05-02T00:29:25.038Z,101219.66
2023-05-02T00:33:26.525Z,101220.50
2023-05-02T00:37:28.572Z,101222.59
2023-05-02T00:41:30.197Z,101218.47
2023-05-02T00:45:32.880Z,101223.41
2023-05-02T00:49:34.320Z,101221.53
2023-05-02T00:53:36.009Z,101228.00
2023-05-02T00:57:37.978Z,101227.16
2023-05-02T01:01:57.540Z,101224.88
2023-05-02T01:06:19.375Z,101226.06
2023-05-02T01:10:41.816Z,101222.41
2023-05-02T01:14:54.848Z,101226.28
2023-05-02T01:18:59.563Z,101227.41
2023-05-02T01:23:09.176Z,101222.44
2023-05-02T01:27:24.684Z,101229.97
2023-05-02T01:31:29.025Z,101237.31
2023-05-02T01:35:33.740Z,101239.09
2023-05-02T01:39:36.602Z,101244.06
2023-05-02T01:43:39.463Z,101245.34
2023-05-02T01:47:44.251Z,101254.00
2023-05-02T01:51:47.836Z,101255.09
2023-05-02T01:55:50.889Z,101265.03
2023-05-02T01:59:55.299Z,101259.19
2023-05-02T02:03:58.624Z,101264.94
2023-05-02T02:08:00.228Z,101280.13
2023-05-02T02:12:07.127Z,101267.41
2023-05-02T02:16:12.607Z,101270.38
2023-05-02T02:20:15.787Z,101263.81
2023-05-02T02:24:20.961Z,101268.69
2023-05-02T02:28:22.527Z,101267.19
2023-05-02T02:32:24.623Z,101267.78
2023-05-02T02:36:33.150Z,101280.41
2023-05-02T02:40:42.077Z,101275.53
2023-05-02T02:44:44.601Z,101276.88
2023-05-02T02:49:01.933Z,101269.03
2023-05-02T02:53:08.561Z,101278.50
2023-05-02T02:57:18.648Z,101276.22
2023-05-02T03:01:22.298Z,101286.59
2023-05-02T03:05:24.474Z,101295.59
2023-05-02T03:09:30.229Z,101304.25
2023-05-02T03:13:31.834Z,101307.25
2023-05-02T03:17:33.637Z,101308.34
2023-05-02T03:21:35.536Z,101310.09
2023-05-02T03:25:44.665Z,101322.44
2023-05-02T03:29:51.270Z,101337.59
2023-05-02T03:33:54.427Z,101350.78
2023-05-02T03:37:56.552Z,101366.06
2023-05-02T03:41:58.270Z,101366.19
2023-05-02T03:46:06.915Z,101373.28
2023-05-02T03:50:11.058Z,101369.97
2023-05-02T03:54:13.219Z,101386.13
2023-05-02T03:58:16.816Z,101392.47
2023-05-02T04:02:20.133Z,101391.88
2023-05-02T04:06:23.548Z,101401.78
2023-05-02T04:10:31.734Z,101415.13
2023-05-02T04:14:36.459Z,101422.88
2023-05-02T04:18:39.068Z,101431.72
2023-05-02T04:22:42.076Z,101440.13
2023-05-02T04:26:43.643Z,101449.59
2023-05-02T04:30:49.300Z,101458.53
2023-05-02T04:34:52.692Z,101468.63
2023-05-02T04:38:55.426Z,101474.91
2023-05-02T04:42:57.459Z,101486.44
2023-05-02T04:47:04.669Z,101482.13
2023-05-02T04:51:06.274Z,101503.25
2023-05-02T04:55:08.146Z,101506.09
2023-05-02T04:59:10.252Z,101520.19
2023-05-02T05:03:12.326Z,101524.75
2023-05-02T05:07:13.885Z,101541.44
2023-05-02T05:11:17.497Z,101544.19
2023-05-02T05:15:23.850Z,101545.88
2023-05-02T05:19:29.897Z,101567.06
2023-05-02T05:23:32.802Z,101563.53
2023-05-02T05:27:35.782Z,101563.63
2023-05-02T05:31:37.783Z,101570.69
2023-05-02T05:35:40.415Z,101583.09
2023-05-02T05:39:41.974Z,101588.38
2023-05-02T05:43:44.419Z,101594.66
2023-05-02T05:47:46.150Z,101599.06
2023-05-02T05:51:48.028Z,101608.88
2023-05-02T05:55:51.085Z,101618.56
2023-05-02T05:59:53.967Z,101633.63
2023-05-02T06:03:56.252Z,101645.13
2023-05-02T06:07:58.481Z,101646.88
2023-05-02T06:12:02.129Z,101661.94
2023-05-02T06:16:06.364Z,101658.34
2023-05-02T06:20:09.299Z,101666.38
2023-05-02T06:24:10.754Z,101676.13
2023-05-02T06:28:12.241Z,101675.28
2023-05-02T06:32:13.779Z,101683.22
2023-05-02T06:36:15.318Z,101685.94
2023-05-02T06:40:16.779Z,101707.13
2023-05-02T06:44:18.187Z,101702.59
2023-05-02T06:48:19.925Z,101706.97
2023-05-02T06:52:21.385Z,101715.75
2023-05-02T06:56:25.660Z,101718.50
2023-05-02T07:00:27.349Z,101725.25
2023-05-02T07:04:28.793Z,101727.31
2023-05-02T07:08:30.359Z,101747.63
2023-05-02T07:12:31.794Z,101749.47
2023-05-02T07:16:33.307Z,101758.25
2023-05-02T07:20:34.759Z,101765.19
2023-05-02T07:24:36.798Z,101771.25
2023-05-02T07:28:38.236Z,101775.59
2023-05-02T07:32:39.758Z,101773.09
2023-05-02T07:36:41.194Z,101789.91
2023-05-02T07:40:43.450Z,101793.50
2023-05-02T07:44:45.137Z,101801.31
2023-05-02T07:48:46.682Z,101806.84
2023-05-02T07:52:48.126Z,101808.63
2023-05-02T07:56:49.521Z,101818.00
2023-05-02T08:00:50.954Z,101820.03
2023-05-02T08:04:52.466Z,101819.41
2023-05-02T08:08:54.396Z,101833.69
2023-05-02T08:12:56.056Z,101839.03
2023-05-02T08:16:59.049Z,101847.72
2023-05-02T08:21:00.523Z,101849.50
2023-05-02T08:25:01.977Z,101852.16
2023-05-02T08:29:04.444Z,101859.13
2023-05-02T08:33:05.994Z,101873.44
2023-05-02T08:37:12.002Z,101874.31
2023-05-02T08:41:17.952Z,101879.78
2023-05-02T08:45:20.832Z,101889.34
2023-05-02T08:49:22.919Z,101890.09
2023-05-02T08:53:25.010Z,101898.94
2023-05-02T08:57:28.641Z,101907.63
2023-05-02T09:01:33.401Z,101916.47
2023-05-02T09:05:41.029Z,101923.72
2023-05-02T09:09:42.500Z,101921.72
2023-05-02T09:13:48.416Z,101929.69
2023-05-02T09:17:49.884Z,101936.91
2023-05-02T09:21:51.715Z,101932.09
2023-05-02T09:25:53.188Z,101947.09
2023-05-02T09:30:24.391Z,101956.34
2023-05-02T09:34:25.838Z,101963.19
2023-05-02T09:38:27.328Z,101971.28
2023-05-02T09:42:32.612Z,101981.22
2023-05-02T09:46:45.562Z,101992.53
2023-05-02T09:50:47.109Z,101996.09
2023-05-02T09:54:50.670Z,102004.06
2023-05-02T09:58:52.230Z,102007.88
2023-05-02T10:02:53.946Z,102008.81
2023-05-02T10:06:56.104Z,102020.50
2023-05-02T10:10:59.301Z,102018.03
2023-05-02T10:15:04.158Z,102024.19
2023-05-02T10:19:12.632Z,102027.97
2023-05-02T10:23:15.566Z,102028.38
2023-05-02T10:27:17.128Z,102026.19
2023-05-02T10:31:19.106Z,102041.41
2023-05-02T10:35:21.542Z,102036.25
2023-05-02T10:39:24.852Z,102046.59
2023-05-02T10:43:30.930Z,102050.41
2023-05-02T10:47:32.858Z,102048.28
2023-05-02T10:51:36.203Z,102055.72
2023-05-02T10:55:37.727Z,102059.78
2023-05-02T10:59:40.595Z,102060.13
2023-05-02T11:04:02.298Z,102058.72
2023-05-02T11:08:15.681Z,102059.66
2023-05-02T11:12:47.749Z,102058.16
2023-05-02T11:17:15.585Z,102055.88
2023-05-02T11:21:32.743Z,102056.38
2023-05-02T11:25:37.043Z,102062.50
2023-05-02T11:29:58.859Z,102062.50
2023-05-02T11:34:02.052Z,102079.75
2023-05-02T11:38:10.038Z,102086.88
2023-05-02T11:42:28.032Z,102082.34
2023-05-02T11:46:30.976Z,102095.41
2023-05-02T11:50:34.306Z,102103.56
2023-05-02T11:54:36.322Z,102101.19
2023-05-02T11:58:37.887Z,102101.84
2023-05-02T12:02:44.101Z,102109.81
2023-05-02T12:06:56.387Z,102113.50
2023-05-02T12:10:57.876Z,102111.59
2023-05-02T12:15:07.178Z,102123.53
2023-05-02T12:19:08.956Z,102114.03
2023-05-02T12:23:11.166Z,102126.50
2023-05-02T12:27:14.710Z,102130.03
2023-05-02T12:31:16.470Z,102141.94
2023-05-02T12:35:23.068Z,102145.59
2023-05-02T12:39:38.537Z,102142.56
2023-05-02T12:43:46.166Z,102147.19
2023-05-02T12:47:47.606Z,102153.13
2023-05-02T12:51:53.391Z,102155.44
2023-05-02T12:56:04.630Z,102164.69
2023-05-02T13:00:06.918Z,102166.72
2023-05-02T13:04:08.496Z,102172.16
2023-05-02T13:08:09.978Z,102174.66
2023-05-02T13:12:11.528Z,102178.78
2023-05-02T13:16:13.115Z,102167.16
2023-05-02T13:20:14.801Z,102172.91
2023-05-02T13:24:17.453Z,102176.13
2023-05-02T13:28:19.107Z,102178.59
2023-05-02T13:32:21.726Z,102178.38
2023-05-02T13:36:24.456Z,102177.56
2023-05-02T13:40:25.983Z,102194.19
2023-05-02T13:44:27.483Z,102192.16
2023-05-02T13:48:29.962Z,102192.25
2023-05-02T13:52:31.599Z,102191.06
2023-05-02T13:56:33.140Z,102193.84
2023-05-02T14:00:34.862Z,102188.91
2023-05-02T14:04:36.353Z,102200.28
2023-05-02T14:08:38.015Z,102199.31
2023-05-02T14:12:39.481Z,102205.72
2023-05-02T14:16:41.036Z,102197.28
2023-05-02T14:20:42.934Z,102197.59
2023-05-02T14:24:44.396Z,102204.75
2023-05-02T14:28:46.380Z,102218.34
2023-05-02T14:32:47.908Z,102212.41
2023-05-02T14:36:49.436Z,102208.50
2023-05-02T14:40:51.299Z,102216.09
2023-05-02T14:44:53.428Z,102222.69
2023-05-02T14:48:54.888Z,102226.16
2023-05-02T14:52:56.553Z,102221.31
2023-05-02T14:56:59.477Z,102222.19
2023-05-02T15:01:01.249Z,102230.38
2023-05-02T15:05:05.651Z,102235.94
2023-05-02T15:09:07.412Z,102232.38
2023-05-02T15:13:08.998Z,102238.50
2023-05-02T15:17:10.630Z,102237.00
2023-05-02T15:21:12.267Z,102240.34
2023-05-02T15:25:13.727Z,102241.75
2023-05-02T15:29:15.171Z,102243.81
2023-05-02T15:33:16.642Z,102253.09
2023-05-02T15:37:18.061Z,102255.78
2023-05-02T15:41:19.485Z,102259.16
2023-05-02T15:45:20.921Z,102252.09
2023-05-02T15:49:24.452Z,102256.78
2023-05-02T15:53:26.201Z,102257.03
2023-05-02T15:57:27.734Z,102260.56
2023-05-02T16:01:29.265Z,102271.22
2023-05-02T16:05:31.001Z,102265.50
2023-05-02T16:09:32.547Z,102263.31
2023-05-02T16:13:34.093Z,102269.78
2023-05-02T16:17:35.776Z,102272.97
2023-05-02T16:21:37.311Z,102274.75
2023-05-02T16:25:39.023Z,102275.72
2023-05-02T16:29:40.693Z,102267.53
2023-05-02T16:33:42.787Z,102273.75
2023-05-02T16:37:44.250Z,102271.25
2023-05-02T16:41:45.708Z,102279.34
2023-05-02T16:45:47.188Z,102280.78
2023-05-02T16:49:53.482Z,102286.91
2023-05-02T16:53:55.076Z,102294.94
2023-05-02T16:57:56.555Z,102296.25
2023-05-02T17:01:58.131Z,102292.88
2023-05-02T17:06:01.133Z,102297.84
2023-05-02T17:10:04.265Z,102293.97
2023-05-02T17:14:06.343Z,102291.88
2023-05-02T17:18:08.106Z,102303.06
2023-05-02T17:22:09.825Z,102308.47
2023-05-02T17:26:15.464Z,102305.88
2023-05-02T17:30:16.957Z,102305.41
2023-05-02T17:34:18.389Z,102303.59
2023-05-02T17:38:20.245Z,102311.34
2023-05-02T17:42:21.674Z,102314.53
2023-05-02T17:46:23.186Z,102302.81
2023-05-02T17:50:24.758Z,102315.25
2023-05-02T17:54:26.534Z,102310.91
2023-05-02T17:58:28.221Z,102308.88
2023-05-02T18:02:29.994Z,102313.72
2023-05-02T18:06:32.016Z,102319.94
2023-05-02T18:10:37.899Z,102311.41
2023-05-02T18:14:39.413Z,102316.75
2023-05-02T18:18:41.527Z,102327.53
2023-05-02T18:22:43.020Z,102327.50
2023-05-02T18:26:44.590Z,102331.91
2023-05-02T18:30:46.540Z,102330.22
2023-05-02T18:34:48.351Z,102335.56
2023-05-02T18:38:49.768Z,102324.94
2023-05-02T18:42:51.476Z,102327.59
2023-05-02T18:46:53.192Z,102339.19
2023-05-02T18:50:57.497Z,102348.97
2023-05-02T18:54:59.667Z,102348.06
2023-05-02T18:59:04.578Z,102351.66
2023-05-02T19:03:06.237Z,102354.31
2023-05-02T19:07:07.778Z,102352.50
2023-05-02T19:11:09.412Z,102357.84
2023-05-02T19:15:11.487Z,102370.34
2023-05-02T19:19:12.937Z,102373.84
2023-05-02T19:23:20.268Z,102373.84
2023-05-02T19:27:22.060Z,102377.41
2023-05-02T19:31:23.653Z,102386.22
2023-05-02T19:35:25.539Z,102390.66
2023-05-02T19:39:28.334Z,102389.72
2023-05-02T19:43:29.794Z,102395.91
2023-05-02T19:47:32.788Z,102401.16
2023-05-02T19:51:35.292Z,102404.78
2023-05-02T19:55:36.924Z,102405.66
2023-05-02T19:59:38.471Z,102418.06
2023-05-02T20:03:40.025Z,102423.22
2023-05-02T20:07:41.557Z,102416.13
2023-05-02T20:11:42.993Z,102420.53
2023-05-02T20:15:44.452Z,102426.59
2023-05-02T20:19:46.106Z,102430.91
2023-05-02T20:23:47.644Z,102434.63
2023-05-02T20:27:50.453Z,102432.91
2023-05-02T20:31:52.860Z,102437.41
2023-05-02T20:35:55.854Z,102442.72
2023-05-02T20:39:57.453Z,102435.56
2023-05-02T20:44:01.186Z,102447.81
2023-05-02T20:48:02.743Z,102442.44
2023-05-02T20:52:05.423Z,102443.44
2023-05-02T20:56:07.150Z,102451.09
2023-05-02T21:00:11.195Z,102447.78
2023-05-02T21:04:12.767Z,102459.22
2023-05-02T21:08:14.225Z,102451.31
2023-05-02T21:12:16.176Z,102457.50
2023-05-02T21:16:18.923Z,102459.97
2023-05-02T21:20:20.453Z,102458.47
2023-05-02T21:24:21.876Z,102462.03
2023-05-02T21:28:23.291Z,102464.31
2023-05-02T21:32:25.799Z,102468.94
2023-05-02T21:36:27.447Z,102464.31
2023-05-02T21:40:31.430Z,102467.25
2023-05-02T21:44:33.012Z,102473.34
2023-05-02T21:48:34.443Z,102480.53
2023-05-02T21:52:36.217Z,102476.75
2023-05-02T21:56:37.827Z,102480.25
2023-05-02T22:00:40.627Z,102474.81
2023-05-02T22:04:42.992Z,102482.94
2023-05-02T22:08:44.566Z,102487.31
2023-05-02T22:12:46.581Z,102495.22
2023-05-02T22:16:48.053Z,102488.28
2023-05-02T22:20:49.526Z,102480.16
2023-05-02T22:24:51.283Z,102493.47
2023-05-02T22:28:52.883Z,102501.06
2023-05-02T22:32:54.368Z,102494.16
2023-05-02T22:36:55.848Z,102496.69
2023-05-02T22:40:57.303Z,102501.91
2023-05-02T22:44:58.798Z,102507.41
2023-05-02T22:49:00.275Z,102499.13
2023-05-02T22:53:03.836Z,102504.63
2023-05-02T22:57:05.764Z,102501.97
2023-05-02T23:01:07.430Z,102506.31
2023-05-02T23:05:09.453Z,102502.69
2023-05-02T23:09:11.073Z,102495.75
2023-05-02T23:13:12.574Z,102502.84
2023-05-02T23:17:14.234Z,102510.13
2023-05-02T23:21:16.626Z,102507.25
2023-05-02T23:25:18.514Z,102513.41
2023-05-02T23:29:20.132Z,102506.44
2023-05-02T23:33:21.645Z,102502.44
2023-05-02T23:37:23.367Z,102515.38
2023-05-02T23:41:26.183Z,102516.06
2023-05-02T23:45:27.620Z,102509.63
2023-05-02T23:49:29.075Z,102511.69
2023-05-02T23:53:30.572Z,102511.66
2023-05-02T23:57:32.217Z,102511.81
